createdAt,value
2017-09-02T00:00:35.325Z,0
2017-09-02T00:01:37.102Z,0
2017-09-02T00:02:38.761Z,0
2017-09-02T00:03:40.461Z,0
2017-09-02T00:04:42.123Z,0
2017-09-02T00:05:43.821Z,0
2017-09-02T00:06:45.508Z,0
2017-09-02T00:07:47.195Z,0
2017-09-02T00:08:48.902Z,0
2017-09-02T00:09:50.555Z,0
2017-09-02T00:10:52.250Z,0
2017-09-02T00:11:54.409Z,0
2017-09-02T00:12:56.102Z,0
2017-09-02T00:13:57.937Z,0
2017-09-02T00:14:59.812Z,0
2017-09-02T00:16:01.464Z,0
2017-09-02T00:17:03.178Z,0
2017-09-02T00:18:05.120Z,0
2017-09-02T00:19:06.785Z,0
2017-09-02T00:20:08.438Z,0
2017-09-02T00:21:10.614Z,0
2017-09-02T00:22:12.354Z,0
2017-09-02T00:23:14.244Z,0
2017-09-02T00:24:15.964Z,0
2017-09-02T00:25:17.652Z,0
2017-09-02T00:26:19.343Z,0
2017-09-02T00:27:21.212Z,0
2017-09-02T00:28:23.137Z,0
2017-09-02T00:29:24.830Z,0
2017-09-02T00:30:26.623Z,0
2017-09-02T00:31:28.279Z,0
2017-09-02T00:32:29.949Z,0
2017-09-02T00:33:31.621Z,0
2017-09-02T00:34:33.497Z,0
2017-09-02T00:35:35.151Z,0
2017-09-02T00:36:37.086Z,0
2017-09-02T00:37:38.747Z,0
2017-09-02T00:38:40.420Z,0
2017-09-02T00:39:42.081Z,0
2017-09-02T00:40:43.976Z,0
2017-09-02T00:41:45.657Z,0
2017-09-02T00:42:47.572Z,0
2017-09-02T00:43:49.230Z,0
2017-09-02T00:44:51.160Z,0
2017-09-02T00:45:53.081Z,0
2017-09-02T00:46:54.905Z,0
2017-09-02T00:47:56.549Z,0
2017-09-02T00:48:58.222Z,0
2017-09-02T00:49:59.881Z,0
2017-09-02T00:51:01.863Z,0
2017-09-02T00:52:03.549Z,0
2017-09-02T00:53:05.241Z,0
2017-09-02T00:54:06.908Z,0
2017-09-02T00:55:08.543Z,0
2017-09-02T00:56:10.417Z,0
2017-09-02T00:57:12.056Z,0
2017-09-02T00:58:13.730Z,0
2017-09-02T00:59:15.404Z,0
2017-09-02T01:00:17.115Z,0
2017-09-02T01:01:18.767Z,0
2017-09-02T01:02:20.952Z,0
2017-09-02T01:03:22.620Z,0
2017-09-02T01:04:24.365Z,0
2017-09-02T01:05:26.271Z,0
2017-09-02T01:06:27.946Z,0
2017-09-02T01:07:29.647Z,0
2017-09-02T01:08:31.469Z,0
2017-09-02T01:09:33.212Z,0
2017-09-02T01:10:34.873Z,0
2017-09-02T01:11:36.544Z,0
2017-09-02T01:12:38.222Z,0
2017-09-02T01:13:39.906Z,0
2017-09-02T01:14:41.572Z,0
2017-09-02T01:15:43.238Z,0
2017-09-02T01:16:44.900Z,0
2017-09-02T01:17:46.797Z,0
2017-09-02T01:18:48.456Z,0
2017-09-02T01:19:50.146Z,0
2017-09-02T01:20:51.821Z,0
2017-09-02T01:21:53.468Z,0
2017-09-02T01:22:55.141Z,0
2017-09-02T01:23:56.813Z,0
2017-09-02T01:24:58.491Z,0
2017-09-02T01:26:00.219Z,0
2017-09-02T01:27:01.904Z,0
2017-09-02T01:28:03.553Z,0
2017-09-02T01:29:05.220Z,0
2017-09-02T01:30:06.876Z,0
2017-09-02T01:31:08.532Z,0
2017-09-02T01:32:10.323Z,0
2017-09-02T01:33:11.976Z,0
2017-09-02T01:34:13.667Z,0
2017-09-02T01:35:15.344Z,0
2017-09-02T01:36:16.996Z,0
2017-09-02T01:37:18.676Z,0
2017-09-02T01:38:20.350Z,0
2017-09-02T01:39:22.136Z,0
2017-09-02T01:40:24.108Z,0
2017-09-02T01:41:25.815Z,0
2017-09-02T01:42:27.460Z,0
2017-09-02T01:43:29.348Z,0
2017-09-02T01:44:31.269Z,0
2017-09-02T01:45:33.026Z,0
2017-09-02T01:46:34.729Z,0
2017-09-02T01:47:36.391Z,0
2017-09-02T01:48:38.129Z,0
2017-09-02T01:49:39.747Z,0
2017-09-02T01:50:41.435Z,0
2017-09-02T01:51:43.064Z,0
2017-09-02T01:52:44.732Z,0
2017-09-02T01:53:46.409Z,0
2017-09-02T01:54:48.297Z,0
2017-09-02T01:55:49.965Z,0
2017-09-02T01:56:52.123Z,0
2017-09-02T01:57:53.778Z,0
2017-09-02T01:58:55.453Z,0
2017-09-02T01:59:57.389Z,0
2017-09-02T02:00:59.217Z,0
2017-09-02T02:02:01.169Z,0
2017-09-02T02:03:02.825Z,0
2017-09-02T02:04:04.468Z,0
2017-09-02T02:05:06.147Z,0
2017-09-02T02:06:07.811Z,0
2017-09-02T02:07:09.468Z,0
2017-09-02T02:08:11.134Z,0
2017-09-02T02:09:12.792Z,0
2017-09-02T02:10:14.460Z,0
2017-09-02T02:11:16.110Z,0
2017-09-02T02:12:17.778Z,0
2017-09-02T02:13:19.453Z,0
2017-09-02T02:14:21.115Z,0
2017-09-02T02:15:22.778Z,0
2017-09-02T02:16:24.436Z,0
2017-09-02T02:17:26.114Z,0
2017-09-02T02:18:27.765Z,0
2017-09-02T02:19:29.440Z,0
2017-09-02T02:20:31.171Z,0
2017-09-02T02:21:32.885Z,0
2017-09-02T02:22:34.551Z,0
2017-09-02T02:23:36.213Z,0
2017-09-02T02:24:37.874Z,0
2017-09-02T02:25:39.550Z,0
2017-09-02T02:26:41.234Z,0
2017-09-02T02:27:42.915Z,0
2017-09-02T02:28:44.760Z,0
2017-09-02T02:29:46.422Z,0
2017-09-02T02:30:48.268Z,0
2017-09-02T02:31:49.994Z,0
2017-09-02T02:32:51.727Z,0
2017-09-02T02:33:53.859Z,0
2017-09-02T02:34:55.485Z,0
2017-09-02T02:35:57.152Z,0
2017-09-02T02:37:00.915Z,0
2017-09-02T02:38:02.833Z,0
2017-09-02T02:39:04.499Z,0
2017-09-02T02:40:06.653Z,0
2017-09-02T02:41:08.325Z,0
2017-09-02T02:42:10.141Z,0
2017-09-02T02:43:11.806Z,0
2017-09-02T02:44:13.468Z,0
2017-09-02T02:45:15.127Z,0
2017-09-02T02:46:16.783Z,0
2017-09-02T02:47:18.446Z,0
2017-09-02T02:48:20.105Z,0
2017-09-02T02:49:21.848Z,0
2017-09-02T02:50:23.493Z,0
2017-09-02T02:51:25.163Z,0
2017-09-02T02:52:26.899Z,0
2017-09-02T02:53:28.537Z,0
2017-09-02T02:54:30.192Z,0
2017-09-02T02:55:31.846Z,0
2017-09-02T02:56:33.554Z,0
2017-09-02T02:57:35.234Z,0
2017-09-02T02:58:36.922Z,0
2017-09-02T02:59:38.571Z,0
2017-09-02T03:00:40.325Z,0
2017-09-02T03:01:41.992Z,0
2017-09-02T03:02:43.758Z,0
2017-09-02T03:03:45.441Z,0
2017-09-02T03:04:47.123Z,0
2017-09-02T03:05:48.814Z,0
2017-09-02T03:06:50.605Z,0
2017-09-02T03:07:52.269Z,0
2017-09-02T03:08:53.935Z,0
2017-09-02T03:09:55.649Z,0
2017-09-02T03:10:57.306Z,0
2017-09-02T03:11:58.968Z,0
2017-09-02T03:13:00.683Z,0
2017-09-02T03:14:02.350Z,0
2017-09-02T03:15:04.012Z,0
2017-09-02T03:16:05.692Z,0
2017-09-02T03:17:07.383Z,0
2017-09-02T03:18:09.357Z,0
2017-09-02T03:19:11.328Z,0
2017-09-02T03:20:13.312Z,0
2017-09-02T03:21:15.479Z,0
2017-09-02T03:22:17.349Z,0
2017-09-02T03:23:19.025Z,0
2017-09-02T03:24:20.705Z,0
2017-09-02T03:25:22.417Z,0
2017-09-02T03:26:24.210Z,0
2017-09-02T03:27:25.882Z,0
2017-09-02T03:28:27.544Z,0
2017-09-02T03:29:29.205Z,0
2017-09-02T03:30:30.879Z,0
2017-09-02T03:31:32.533Z,0
2017-09-02T03:32:34.202Z,0
2017-09-02T03:33:35.949Z,0
2017-09-02T03:34:37.624Z,0
2017-09-02T03:35:39.301Z,0
2017-09-02T03:36:40.969Z,0
2017-09-02T03:37:42.688Z,0
2017-09-02T03:38:44.328Z,0
2017-09-02T03:39:46.004Z,0
2017-09-02T03:40:47.681Z,0
2017-09-02T03:41:49.383Z,0
2017-09-02T03:42:51.101Z,0
2017-09-02T03:43:52.928Z,0
2017-09-02T03:44:54.701Z,0
2017-09-02T03:45:56.370Z,0
2017-09-02T03:46:58.011Z,0
2017-09-02T03:47:59.644Z,0
2017-09-02T03:49:01.284Z,0
2017-09-02T03:50:02.932Z,0
2017-09-02T03:51:04.565Z,0
2017-09-02T03:52:06.196Z,0
2017-09-02T03:53:07.838Z,0
2017-09-02T03:54:09.470Z,0
2017-09-02T03:55:11.105Z,0
2017-09-02T03:56:12.737Z,0
2017-09-02T03:57:14.375Z,0
2017-09-02T03:58:16.009Z,0
2017-09-02T03:59:17.643Z,0
2017-09-02T04:00:19.276Z,0
2017-09-02T04:01:20.903Z,0
2017-09-02T04:02:22.541Z,0
2017-09-02T04:03:24.190Z,0
2017-09-02T04:04:25.840Z,0
2017-09-02T04:05:27.545Z,0
2017-09-02T04:06:29.234Z,0
2017-09-02T04:07:30.991Z,0
2017-09-02T04:08:32.756Z,0
2017-09-02T04:09:34.419Z,0
2017-09-02T04:10:36.204Z,0
2017-09-02T04:11:37.884Z,0
2017-09-02T04:12:39.571Z,0
2017-09-02T04:13:41.276Z,0
2017-09-02T04:14:42.972Z,0
2017-09-02T04:15:44.739Z,0
2017-09-02T04:16:46.468Z,0
2017-09-02T04:17:48.181Z,0
2017-09-02T04:18:49.854Z,0
2017-09-02T04:19:51.472Z,0
2017-09-02T04:20:53.105Z,0
2017-09-02T04:21:54.792Z,0
2017-09-02T04:22:56.494Z,0
2017-09-02T04:23:58.157Z,0
2017-09-02T04:24:59.890Z,0
2017-09-02T04:26:01.569Z,0
2017-09-02T04:27:03.239Z,0
2017-09-02T04:28:04.909Z,0
2017-09-02T04:29:06.592Z,4
2017-09-02T04:30:08.259Z,0
2017-09-02T04:31:09.936Z,4
2017-09-02T04:32:11.623Z,4
2017-09-02T04:33:13.358Z,0
2017-09-02T04:34:15.030Z,4
2017-09-02T04:35:16.710Z,4
2017-09-02T04:36:18.459Z,8
2017-09-02T04:37:20.128Z,8
2017-09-02T04:38:21.771Z,8
2017-09-02T04:39:23.449Z,8
2017-09-02T04:40:25.130Z,12
2017-09-02T04:41:26.795Z,12
2017-09-02T04:42:28.533Z,8
2017-09-02T04:43:30.473Z,12
2017-09-02T04:44:32.114Z,12
2017-09-02T04:45:33.862Z,16
2017-09-02T04:46:35.504Z,16
2017-09-02T04:47:37.168Z,20
2017-09-02T04:48:38.903Z,28
2017-09-02T04:49:40.571Z,28
2017-09-02T04:50:42.301Z,32
2017-09-02T04:51:43.959Z,36
2017-09-02T04:52:45.627Z,40
2017-09-02T04:53:47.309Z,44
2017-09-02T04:54:48.990Z,52
2017-09-02T04:55:50.651Z,60
2017-09-02T04:56:52.326Z,68
2017-09-02T04:57:54.003Z,76
2017-09-02T04:58:55.678Z,80
2017-09-02T04:59:57.381Z,88
2017-09-02T05:00:59.138Z,92
2017-09-02T05:02:00.842Z,96
2017-09-02T05:03:02.569Z,96
2017-09-02T05:04:04.247Z,100
2017-09-02T05:05:05.912Z,108
2017-09-02T05:06:07.598Z,116
2017-09-02T05:07:09.291Z,124
2017-09-02T05:08:10.960Z,132
2017-09-02T05:09:12.638Z,144
2017-09-02T05:10:14.299Z,160
2017-09-02T05:11:15.976Z,172
2017-09-02T05:12:17.641Z,184
2017-09-02T05:13:19.326Z,196
2017-09-02T05:14:20.992Z,208
2017-09-02T05:15:22.640Z,216
2017-09-02T05:16:24.352Z,224
2017-09-02T05:17:26.029Z,240
2017-09-02T05:18:27.690Z,244
2017-09-02T05:19:29.440Z,256
2017-09-02T05:20:31.100Z,268
2017-09-02T05:21:32.787Z,280
2017-09-02T05:22:34.530Z,296
2017-09-02T05:23:36.189Z,320
2017-09-02T05:24:37.858Z,340
2017-09-02T05:25:39.596Z,364
2017-09-02T05:26:41.289Z,384
2017-09-02T05:27:42.963Z,404
2017-09-02T05:28:44.600Z,424
2017-09-02T05:29:46.268Z,444
2017-09-02T05:30:47.960Z,468
2017-09-02T05:31:49.692Z,496
2017-09-02T05:32:51.411Z,524
2017-09-02T05:33:53.125Z,548
2017-09-02T05:34:54.801Z,576
2017-09-02T05:35:56.482Z,600
2017-09-02T05:36:58.202Z,628
2017-09-02T05:37:59.931Z,656
2017-09-02T05:39:01.604Z,680
2017-09-02T05:40:03.278Z,708
2017-09-02T05:41:04.945Z,736
2017-09-02T05:42:06.627Z,764
2017-09-02T05:43:08.301Z,796
2017-09-02T05:44:09.959Z,828
2017-09-02T05:45:11.658Z,860
2017-09-02T05:46:13.323Z,896
2017-09-02T05:47:15.002Z,936
2017-09-02T05:48:16.675Z,976
2017-09-02T05:49:18.333Z,1024
2017-09-02T05:50:19.997Z,1072
2017-09-02T05:51:21.656Z,1124
2017-09-02T05:52:23.374Z,1176
2017-09-02T05:53:25.068Z,1224
2017-09-02T05:54:26.748Z,1268
2017-09-02T05:55:28.422Z,1300
2017-09-02T05:56:30.091Z,1328
2017-09-02T05:57:31.820Z,1348
2017-09-02T05:58:33.524Z,1372
2017-09-02T05:59:35.238Z,1388
2017-09-02T06:00:36.923Z,1416
2017-09-02T06:01:38.712Z,1440
2017-09-02T06:02:40.400Z,1468
2017-09-02T06:03:42.089Z,1508
2017-09-02T06:04:43.764Z,1564
2017-09-02T06:05:45.418Z,1624
2017-09-02T06:06:47.103Z,1696
2017-09-02T06:07:48.766Z,1764
2017-09-02T06:08:50.493Z,1816
2017-09-02T06:09:52.172Z,1876
2017-09-02T06:10:53.846Z,1916
2017-09-02T06:11:55.538Z,1952
2017-09-02T06:12:57.233Z,1980
2017-09-02T06:13:58.920Z,2036
2017-09-02T06:15:00.569Z,2108
2017-09-02T06:16:02.227Z,2200
2017-09-02T06:17:03.914Z,2304
2017-09-02T06:18:05.645Z,2416
2017-09-02T06:19:07.327Z,2528
2017-09-02T06:20:09.055Z,2636
2017-09-02T06:21:10.769Z,2760
2017-09-02T06:22:12.454Z,2872
2017-09-02T06:23:14.139Z,2948
2017-09-02T06:24:15.826Z,3004
2017-09-02T06:25:17.542Z,3024
2017-09-02T06:26:19.268Z,3056
2017-09-02T06:27:21.019Z,3088
2017-09-02T06:28:22.691Z,3156
2017-09-02T06:29:24.363Z,3240
2017-09-02T06:30:26.047Z,3312
2017-09-02T06:31:27.823Z,3424
2017-09-02T06:32:29.492Z,3564
2017-09-02T06:33:31.230Z,3708
2017-09-02T06:34:32.922Z,3920
2017-09-02T06:35:34.710Z,4104
2017-09-02T06:36:36.356Z,4144
2017-09-02T06:37:38.151Z,4348
2017-09-02T06:38:39.835Z,4448
2017-09-02T06:39:41.529Z,4444
2017-09-02T06:40:43.253Z,4400
2017-09-02T06:41:44.929Z,4224
2017-09-02T06:42:46.592Z,4064
2017-09-02T06:43:48.290Z,4072
2017-09-02T06:44:49.944Z,4096
2017-09-02T06:45:51.686Z,4316
2017-09-02T06:46:53.344Z,4608
2017-09-02T06:47:55.017Z,4900
2017-09-02T06:48:56.687Z,5128
2017-09-02T06:49:58.365Z,5312
2017-09-02T06:51:00.037Z,5496
2017-09-02T06:52:01.772Z,5596
2017-09-02T06:53:03.552Z,5540
2017-09-02T06:54:05.243Z,5624
2017-09-02T06:55:06.928Z,5736
2017-09-02T06:56:08.663Z,5716
2017-09-02T06:57:10.340Z,5752
2017-09-02T06:58:12.155Z,5760
2017-09-02T06:59:13.813Z,5796
2017-09-02T07:00:15.578Z,6048
2017-09-02T07:01:17.268Z,5996
2017-09-02T07:02:19.050Z,5864
2017-09-02T07:03:20.742Z,5924
2017-09-02T07:04:22.420Z,5760
2017-09-02T07:05:24.193Z,5540
2017-09-02T07:06:25.942Z,5260
2017-09-02T07:07:27.629Z,5240
2017-09-02T07:08:29.303Z,5000
2017-09-02T07:09:30.984Z,4684
2017-09-02T07:10:32.780Z,4376
2017-09-02T07:11:34.446Z,4136
2017-09-02T07:12:36.128Z,4008
2017-09-02T07:13:37.834Z,4100
2017-09-02T07:14:39.494Z,3780
2017-09-02T07:15:41.197Z,3812
2017-09-02T07:16:42.983Z,3816
2017-09-02T07:17:44.997Z,3892
2017-09-02T07:18:46.715Z,4008
2017-09-02T07:19:48.520Z,4164
2017-09-02T07:20:50.287Z,4364
2017-09-02T07:21:52.176Z,4480
2017-09-02T07:22:53.890Z,4676
2017-09-02T07:23:55.564Z,4508
2017-09-02T07:24:57.259Z,4328
2017-09-02T07:25:58.963Z,4256
2017-09-02T07:27:00.717Z,4220
2017-09-02T07:28:02.490Z,4228
2017-09-02T07:29:04.161Z,4288
2017-09-02T07:30:06.347Z,4356
2017-09-02T07:31:08.058Z,4400
2017-09-02T07:32:09.849Z,4444
2017-09-02T07:33:12.152Z,4552
2017-09-02T07:34:13.896Z,4872
2017-09-02T07:35:16.072Z,5172
2017-09-02T07:36:19.042Z,5236
2017-09-02T07:37:20.863Z,5468
2017-09-02T07:38:22.562Z,5528
2017-09-02T07:39:24.318Z,5720
2017-09-02T07:40:26.012Z,6720
2017-09-02T07:41:27.736Z,6520
2017-09-02T07:42:29.795Z,6596
2017-09-02T07:43:31.553Z,7012
2017-09-02T07:44:33.306Z,12124
2017-09-02T07:45:34.965Z,19296
2017-09-02T07:46:36.687Z,17600
2017-09-02T07:47:38.362Z,16608
2017-09-02T07:48:40.068Z,14496
2017-09-02T07:49:41.863Z,11780
2017-09-02T07:50:43.551Z,12964
2017-09-02T07:51:46.028Z,13072
2017-09-02T07:52:47.679Z,14592
2017-09-02T07:53:52.612Z,15936
2017-09-02T07:54:55.381Z,15040
2017-09-02T07:55:57.320Z,16608
2017-09-02T07:56:59.047Z,12700
2017-09-02T07:58:00.788Z,12732
2017-09-02T07:59:04.101Z,15744
2017-09-02T08:00:05.875Z,13952
2017-09-02T08:01:07.551Z,9548
2017-09-02T08:02:09.231Z,8768
2017-09-02T08:03:10.941Z,8572
2017-09-02T08:04:12.768Z,7692
2017-09-02T08:05:14.484Z,7004
2017-09-02T08:06:17.826Z,6336
2017-09-02T08:07:19.527Z,5596
2017-09-02T08:08:21.202Z,5248
2017-09-02T08:09:22.904Z,5248
2017-09-02T08:10:24.620Z,5428
2017-09-02T08:11:26.302Z,5364
2017-09-02T08:12:28.033Z,5100
2017-09-02T08:13:29.735Z,5012
2017-09-02T08:14:31.406Z,5164
2017-09-02T08:15:33.098Z,5480
2017-09-02T08:16:34.776Z,5860
2017-09-02T08:17:36.478Z,6268
2017-09-02T08:18:38.190Z,6512
2017-09-02T08:19:39.927Z,6352
2017-09-02T08:20:41.614Z,6148
2017-09-02T08:21:43.264Z,6180
2017-09-02T08:22:45.011Z,6208
2017-09-02T08:23:46.709Z,6364
2017-09-02T08:24:48.364Z,6764
2017-09-02T08:25:50.043Z,9396
2017-09-02T08:26:51.715Z,7828
2017-09-02T08:27:53.382Z,7588
2017-09-02T08:28:55.081Z,7904
2017-09-02T08:29:56.733Z,8016
2017-09-02T08:30:58.432Z,7652
2017-09-02T08:32:00.087Z,7116
2017-09-02T08:33:01.771Z,6660
2017-09-02T08:34:03.464Z,6328
2017-09-02T08:35:05.180Z,6088
2017-09-02T08:36:06.898Z,5828
2017-09-02T08:37:08.568Z,5832
2017-09-02T08:38:10.251Z,6056
2017-09-02T08:39:11.953Z,6320
2017-09-02T08:40:13.665Z,6548
2017-09-02T08:41:15.344Z,6524
2017-09-02T08:42:16.998Z,6076
2017-09-02T08:43:18.669Z,6004
2017-09-02T08:44:20.367Z,6040
2017-09-02T08:45:22.086Z,6276
2017-09-02T08:46:23.751Z,6496
2017-09-02T08:47:25.472Z,6396
2017-09-02T08:48:27.206Z,6460
2017-09-02T08:49:28.900Z,6704
2017-09-02T08:50:30.585Z,10428
2017-09-02T08:51:32.259Z,6572
2017-09-02T08:52:34.574Z,6424
2017-09-02T08:53:36.690Z,6884
2017-09-02T08:54:38.449Z,7504
2017-09-02T08:55:40.093Z,8356
2017-09-02T08:56:44.081Z,8664
2017-09-02T08:57:45.795Z,9168
2017-09-02T08:58:47.522Z,9504
2017-09-02T08:59:49.200Z,9588
2017-09-02T09:00:50.884Z,8836
2017-09-02T09:01:53.060Z,8728
2017-09-02T09:02:55.181Z,9264
2017-09-02T09:03:56.869Z,10436
2017-09-02T09:04:58.565Z,9772
2017-09-02T09:06:00.272Z,19264
2017-09-02T09:07:02.056Z,10876
2017-09-02T09:08:03.711Z,10128
2017-09-02T09:09:05.557Z,9660
2017-09-02T09:10:07.214Z,8116
2017-09-02T09:11:08.886Z,8268
2017-09-02T09:12:10.695Z,9452
2017-09-02T09:13:13.341Z,12716
2017-09-02T09:14:15.128Z,11100
2017-09-02T09:15:17.445Z,11568
2017-09-02T09:16:19.146Z,14456
2017-09-02T09:17:20.824Z,16192
2017-09-02T09:18:22.579Z,10744
2017-09-02T09:19:24.286Z,10076
2017-09-02T09:20:25.969Z,10300
2017-09-02T09:21:27.628Z,11264
2017-09-02T09:22:29.330Z,12956
2017-09-02T09:23:32.155Z,35872
2017-09-02T09:24:33.832Z,17952
2017-09-02T09:25:35.501Z,11632
2017-09-02T09:26:37.189Z,12260
2017-09-02T09:27:38.958Z,16992
2017-09-02T09:28:40.814Z,15252
2017-09-02T09:29:42.512Z,16088
2017-09-02T09:30:44.287Z,17184
2017-09-02T09:31:48.025Z,15664
2017-09-02T09:32:49.564Z,17408
2017-09-02T09:33:51.267Z,47040
2017-09-02T09:34:52.964Z,46944
2017-09-02T09:35:54.787Z,38304
2017-09-02T09:36:56.486Z,46368
2017-09-02T09:37:58.198Z,51552
2017-09-02T09:38:59.858Z,52992
2017-09-02T09:40:01.826Z,50208
2017-09-02T09:41:03.695Z,50368
2017-09-02T09:42:05.345Z,54528
2017-09-02T09:43:07.428Z,53600
2017-09-02T09:44:09.138Z,18880
2017-09-02T09:45:10.819Z,23872
2017-09-02T09:46:12.581Z,53728
2017-09-02T09:47:14.371Z,55936
2017-09-02T09:48:16.065Z,54176
2017-09-02T09:49:17.785Z,25376
2017-09-02T09:50:19.552Z,15024
2017-09-02T09:51:21.589Z,14932
2017-09-02T09:52:23.514Z,14256
2017-09-02T09:53:25.288Z,25024
2017-09-02T09:54:27.136Z,61248
2017-09-02T09:55:28.857Z,13728
2017-09-02T09:56:30.572Z,39936
2017-09-02T09:57:32.672Z,43104
2017-09-02T09:58:35.328Z,42304
2017-09-02T09:59:38.505Z,39264
2017-09-02T10:00:40.257Z,45728
2017-09-02T10:01:44.311Z,9444
2017-09-02T10:02:51.939Z,8400
2017-09-02T10:03:53.522Z,11336
2017-09-02T10:04:56.652Z,8896
2017-09-02T10:05:58.360Z,16072
2017-09-02T10:07:00.100Z,28512
2017-09-02T10:08:01.853Z,18816
2017-09-02T10:09:03.772Z,15032
2017-09-02T10:10:05.521Z,9588
2017-09-02T10:11:07.309Z,10336
2017-09-02T10:12:09.440Z,24768
2017-09-02T10:13:11.373Z,25536
2017-09-02T10:14:14.585Z,11396
2017-09-02T10:15:16.403Z,11484
2017-09-02T10:16:18.109Z,15536
2017-09-02T10:17:19.865Z,36640
2017-09-02T10:18:21.654Z,62656
2017-09-02T10:19:23.393Z,15756
2017-09-02T10:20:25.092Z,27904
2017-09-02T10:21:26.859Z,22784
2017-09-02T10:22:28.921Z,10984
2017-09-02T10:23:30.853Z,23840
2017-09-02T10:24:33.014Z,24960
2017-09-02T10:25:34.725Z,23872
2017-09-02T10:26:36.617Z,23456
2017-09-02T10:27:38.311Z,69088
2017-09-02T10:28:40.275Z,73664
2017-09-02T10:29:42.063Z,76000
2017-09-02T10:30:43.798Z,76192
2017-09-02T10:31:45.549Z,76256
2017-09-02T10:32:47.334Z,74848
2017-09-02T10:33:49.310Z,34208
2017-09-02T10:34:51.447Z,31584
2017-09-02T10:35:53.539Z,47072
2017-09-02T10:36:55.318Z,16372
2017-09-02T10:37:57.627Z,16756
2017-09-02T10:38:59.596Z,62208
2017-09-02T10:40:01.396Z,59872
2017-09-02T10:41:03.133Z,30368
2017-09-02T10:42:05.151Z,69568
2017-09-02T10:43:07.012Z,21696
2017-09-02T10:44:08.814Z,14944
2017-09-02T10:45:10.595Z,22688
2017-09-02T10:46:12.301Z,37088
2017-09-02T10:47:14.018Z,29312
2017-09-02T10:48:15.736Z,17792
2017-09-02T10:49:17.412Z,13900
2017-09-02T10:50:19.135Z,12864
2017-09-02T10:51:20.889Z,9828
2017-09-02T10:52:22.602Z,7712
2017-09-02T10:53:24.388Z,7612
2017-09-02T10:54:26.171Z,7108
2017-09-02T10:55:27.942Z,6664
2017-09-02T10:56:29.642Z,6388
2017-09-02T10:57:31.356Z,6484
2017-09-02T10:58:33.490Z,7012
2017-09-02T10:59:35.201Z,7192
2017-09-02T11:00:36.875Z,9088
2017-09-02T11:01:38.731Z,6908
2017-09-02T11:02:40.638Z,6072
2017-09-02T11:03:42.382Z,5756
2017-09-02T11:04:44.444Z,5512
2017-09-02T11:05:46.580Z,5220
2017-09-02T11:06:48.387Z,4916
2017-09-02T11:07:50.070Z,4692
2017-09-02T11:08:51.893Z,4600
2017-09-02T11:09:53.625Z,4544
2017-09-02T11:10:55.368Z,4444
2017-09-02T11:11:57.062Z,4264
2017-09-02T11:12:58.781Z,3820
2017-09-02T11:14:00.729Z,3384
2017-09-02T11:15:02.455Z,3124
2017-09-02T11:16:04.164Z,2928
2017-09-02T11:17:05.908Z,2968
2017-09-02T11:18:07.590Z,3136
2017-09-02T11:19:09.786Z,3328
2017-09-02T11:20:11.635Z,3444
2017-09-02T11:21:13.494Z,3548
2017-09-02T11:22:15.325Z,3632
2017-09-02T11:23:17.105Z,3684
2017-09-02T11:24:18.809Z,3756
2017-09-02T11:25:26.436Z,3856
2017-09-02T11:26:28.349Z,3980
2017-09-02T11:27:30.333Z,4132
2017-09-02T11:28:32.121Z,4264
2017-09-02T11:29:34.183Z,4388
2017-09-02T11:30:36.079Z,4520
2017-09-02T11:31:37.930Z,4708
2017-09-02T11:32:39.797Z,4880
2017-09-02T11:33:41.999Z,5092
2017-09-02T11:34:43.845Z,5280
2017-09-02T11:35:45.650Z,5516
2017-09-02T11:36:47.514Z,5760
2017-09-02T11:37:49.315Z,6096
2017-09-02T11:38:51.085Z,6448
2017-09-02T11:39:52.940Z,6872
2017-09-02T11:40:54.804Z,7184
2017-09-02T11:41:56.715Z,7572
2017-09-02T11:42:58.509Z,8076
2017-09-02T11:44:00.377Z,8508
2017-09-02T11:45:02.386Z,8916
2017-09-02T11:46:04.376Z,9468
2017-09-02T11:47:06.120Z,10060
2017-09-02T11:48:07.922Z,10664
2017-09-02T11:49:09.661Z,11644
2017-09-02T11:50:11.569Z,12992
2017-09-02T11:51:13.402Z,14412
2017-09-02T11:52:15.213Z,15420
2017-09-02T11:53:17.082Z,16416
2017-09-02T11:54:19.216Z,17280
2017-09-02T11:55:21.388Z,18592
2017-09-02T11:56:23.173Z,19232
2017-09-02T11:57:25.402Z,17472
2017-09-02T11:58:27.589Z,17024
2017-09-02T11:59:29.372Z,17088
2017-09-02T12:00:31.280Z,16768
2017-09-02T12:01:33.198Z,16416
2017-09-02T12:02:35.481Z,16544
2017-09-02T12:03:37.191Z,17632
2017-09-02T12:04:39.383Z,20320
2017-09-02T12:05:41.451Z,27264
2017-09-02T12:06:43.332Z,39808
2017-09-02T12:07:45.208Z,37632
2017-09-02T12:08:47.139Z,37152
2017-09-02T12:09:49.356Z,33984
2017-09-02T12:10:51.693Z,35872
2017-09-02T12:11:53.823Z,51968
2017-09-02T12:12:56.847Z,62880
2017-09-02T12:13:59.136Z,45536
2017-09-02T12:15:02.885Z,33664
2017-09-02T12:16:04.758Z,36832
2017-09-02T12:17:06.648Z,56480
2017-09-02T12:18:09.239Z,59936
2017-09-02T12:19:11.033Z,69280
2017-09-02T12:20:12.981Z,66240
2017-09-02T12:21:14.688Z,67520
2017-09-02T12:22:16.437Z,17664
2017-09-02T12:23:18.356Z,15160
2017-09-02T12:24:21.932Z,14376
2017-09-02T12:25:23.656Z,14260
2017-09-02T12:26:25.428Z,18080
2017-09-02T12:27:27.162Z,61568
2017-09-02T12:28:29.016Z,62304
2017-09-02T12:29:30.812Z,59680
2017-09-02T12:30:32.829Z,55968
2017-09-02T12:31:34.772Z,55584
2017-09-02T12:32:36.512Z,65536
2017-09-02T12:33:38.502Z,67072
2017-09-02T12:34:40.323Z,71968
2017-09-02T12:35:42.147Z,71296
2017-09-02T12:36:43.908Z,69152
2017-09-02T12:37:45.745Z,67360
2017-09-02T12:38:47.908Z,67648
2017-09-02T12:39:51.634Z,45632
2017-09-02T12:40:53.630Z,52128
2017-09-02T12:41:55.438Z,35296
2017-09-02T12:42:57.363Z,27840
2017-09-02T12:43:59.172Z,66176
2017-09-02T12:45:01.074Z,59520
2017-09-02T12:46:02.835Z,47392
2017-09-02T12:47:04.903Z,60448
2017-09-02T12:48:06.761Z,66400
2017-09-02T12:49:08.504Z,30144
2017-09-02T12:50:10.585Z,54240
2017-09-02T12:51:12.374Z,34400
2017-09-02T12:52:14.202Z,26880
2017-09-02T12:53:15.946Z,49856
2017-09-02T12:54:17.693Z,54240
2017-09-02T12:55:19.505Z,36768
2017-09-02T12:56:21.294Z,32256
2017-09-02T12:57:24.643Z,51712
2017-09-02T12:58:27.085Z,18336
2017-09-02T12:59:29.397Z,17632
2017-09-02T13:00:31.253Z,9736
2017-09-02T13:01:33.077Z,8048
2017-09-02T13:02:34.874Z,6768
2017-09-02T13:03:36.691Z,5796
2017-09-02T13:04:38.510Z,4968
2017-09-02T13:05:40.764Z,4228
2017-09-02T13:06:42.650Z,3544
2017-09-02T13:07:44.738Z,3088
2017-09-02T13:08:47.197Z,2784
2017-09-02T13:09:48.961Z,2552
2017-09-02T13:10:50.645Z,2452
2017-09-02T13:11:52.424Z,2412
2017-09-02T13:12:54.135Z,2428
2017-09-02T13:13:55.878Z,2484
2017-09-02T13:14:57.656Z,2580
2017-09-02T13:15:59.426Z,2716
2017-09-02T13:17:01.139Z,2884
2017-09-02T13:18:02.823Z,3016
2017-09-02T13:19:04.586Z,3076
2017-09-02T13:20:06.328Z,3024
2017-09-02T13:21:08.032Z,2924
2017-09-02T13:22:09.711Z,2884
2017-09-02T13:23:11.517Z,2832
2017-09-02T13:24:13.220Z,2844
2017-09-02T13:25:14.943Z,3012
2017-09-02T13:26:16.703Z,3192
2017-09-02T13:27:18.426Z,3356
2017-09-02T13:28:20.123Z,3528
2017-09-02T13:29:21.872Z,3688
2017-09-02T13:30:23.558Z,3800
2017-09-02T13:31:25.254Z,3844
2017-09-02T13:32:26.957Z,4104
2017-09-02T13:33:28.704Z,4468
2017-09-02T13:34:30.382Z,4840
2017-09-02T13:35:32.113Z,5152
2017-09-02T13:36:33.860Z,5432
2017-09-02T13:37:35.630Z,5684
2017-09-02T13:38:37.369Z,5940
2017-09-02T13:39:39.191Z,6308
2017-09-02T13:40:40.879Z,6676
2017-09-02T13:41:42.661Z,7132
2017-09-02T13:42:44.363Z,7652
2017-09-02T13:43:46.084Z,8132
2017-09-02T13:44:47.781Z,8968
2017-09-02T13:45:49.451Z,9900
2017-09-02T13:46:51.127Z,10420
2017-09-02T13:47:52.870Z,10612
2017-09-02T13:48:54.949Z,10552
2017-09-02T13:49:56.648Z,10304
2017-09-02T13:50:58.436Z,9972
2017-09-02T13:52:00.206Z,9508
2017-09-02T13:53:02.018Z,8968
2017-09-02T13:54:03.780Z,8668
2017-09-02T13:55:05.536Z,8552
2017-09-02T13:56:07.442Z,8416
2017-09-02T13:57:09.339Z,8868
2017-09-02T13:58:11.106Z,9576
2017-09-02T13:59:13.080Z,9252
2017-09-02T14:00:14.798Z,9508
2017-09-02T14:01:18.509Z,9540
2017-09-02T14:02:20.321Z,9888
2017-09-02T14:03:23.371Z,11040
2017-09-02T14:04:25.074Z,10300
2017-09-02T14:05:28.774Z,10212
2017-09-02T14:06:30.500Z,12040
2017-09-02T14:07:32.255Z,10532